Time;durP1;ratioP1;P1;durP2;ratioP2;P2;SDS_P1;SDS_P2;PMS_P1;PMS_P2;Temp;Humidity;BMP_temperature;BMP_pressure;BME280_temperature;BME280_humidity;BME280_pressure;Samples;Min_cycle;Max_cycle;Signal;HPM_P1;HPM_P2
2023/08/05 00:00:14;;;;;;;;;;;;;;;16.09;100.00;101614.66;10503860;28;19932;-67
2023/08/05 00:05:16;;;;;;;;;;;;;;;16.11;100.00;101608.28;10503749;28;19934;-67
2023/08/05 00:10:18;;;;;;;;;;;;;;;16.07;100.00;101608.59;10502364;28;19943;-67
2023/08/05 00:15:21;;;;;;;;;;;;;;;15.93;100.00;101614.81;10502322;28;19925;-67
2023/08/05 00:20:23;;;;;;;;;;;;;;;15.87;100.00;101616.09;10501888;28;19925;-67
2023/08/05 00:25:25;;;;;;;;;;;;;;;15.73;100.00;101609.03;10503149;28;19925;-67
2023/08/05 00:30:27;;;;;;;;;;;;;;;15.70;100.00;101595.19;10500678;28;19924;-67
2023/08/05 00:35:30;;;;;;;;;;;;;;;15.67;100.00;101593.63;10501521;28;19924;-67
2023/08/05 00:40:32;;;;;;;;;;;;;;;15.66;100.00;101599.84;10502479;28;19931;-67
2023/08/05 00:45:34;;;;;;;;;;;;;;;15.60;100.00;101601.09;10502269;28;20379;-67
2023/08/05 00:50:36;;;;;;;;;;;;;;;15.77;100.00;101594.72;10501023;28;20007;-68
2023/08/05 00:55:39;;;;;;;;;;;;;;;15.69;100.00;101586.44;10500707;28;19935;-68
2023/08/05 01:00:41;;;;;;;;;;;;;;;15.72;100.00;101586.22;10500253;28;19924;-68
2023/08/05 01:05:43;;;;;;;;;;;;;;;15.75;100.00;101583.44;10501525;28;20275;-68
2023/08/05 01:10:45;;;;;;;;;;;;;;;15.78;100.00;101583.22;10483653;28;19931;-68
2023/08/05 01:15:48;;;;;;;;;;;;;;;15.75;100.00;101575.50;10499710;28;20264;-68
2023/08/05 01:20:51;;;;;;;;;;;;;;;15.57;100.00;101569.63;10500900;28;19924;-68
2023/08/05 01:25:53;;;;;;;;;;;;;;;15.82;100.00;101559.22;10499384;28;20458;-68
2023/08/05 01:30:55;;;;;;;;;;;;;;;15.78;100.00;101546.28;10499106;28;19951;-68
2023/08/05 01:35:57;;;;;;;;;;;;;;;15.85;100.00;101546.66;10500365;28;19931;-68
2023/08/05 01:41:00;;;;;;;;;;;;;;;15.76;100.00;101540.22;10499650;28;20283;-68
2023/08/05 01:46:02;;;;;;;;;;;;;;;15.75;100.00;101540.28;10499978;28;19931;-68
2023/08/05 01:51:04;;;;;;;;;;;;;;;15.75;100.00;101538.53;10499701;28;19930;-68
2023/08/05 01:56:06;;;;;;;;;;;;;;;15.74;100.00;101543.91;10499258;28;19931;-68
2023/08/05 02:01:08;;;;;;;;;;;;;;;15.81;100.00;101544.34;10499103;28;19936;-68
2023/08/05 02:06:11;;;;;;;;;;;;;;;15.87;100.00;101541.28;10499095;28;19925;-68
2023/08/05 02:11:13;;;;;;;;;;;;;;;15.87;100.00;101541.28;10498878;28;19930;-68
2023/08/05 02:16:15;;;;;;;;;;;;;;;15.76;100.00;101547.31;10498925;28;19924;-68
2023/08/05 02:21:17;;;;;;;;;;;;;;;15.66;100.00;101556.75;10497372;28;19924;-68
2023/08/05 02:26:20;;;;;;;;;;;;;;;15.82;100.00;101548.66;10497391;28;19924;-68
2023/08/05 02:31:22;;;;;;;;;;;;;;;15.74;100.00;101547.38;10498511;28;19924;-68
2023/08/05 02:36:24;;;;;;;;;;;;;;;15.77;100.00;101544.56;10498549;28;19931;-68
2023/08/05 02:41:26;;;;;;;;;;;;;;;15.76;100.00;101542.03;10498132;28;19946;-68
2023/08/05 02:46:29;;;;;;;;;;;;;;;15.76;100.00;101532.31;10498353;28;19928;-68
2023/08/05 02:51:31;;;;;;;;;;;;;;;15.62;100.00;101524.44;10498233;28;19968;-68
2023/08/05 02:56:34;;;;;;;;;;;;;;;15.50;100.00;101519.97;10506389;28;19925;-68
2023/08/05 03:01:36;;;;;;;;;;;;;;;15.45;100.00;101525.56;10506162;28;19931;-68
2023/08/05 03:06:38;;;;;;;;;;;;;;;15.52;100.00;101507.53;10506182;28;19924;-68
2023/08/05 03:11:41;;;;;;;;;;;;;;;15.40;100.00;101517.97;10505933;28;19925;-68
2023/08/05 03:16:43;;;;;;;;;;;;;;;15.33;100.00;101519.31;10505732;28;20015;-68
2023/08/05 03:21:45;;;;;;;;;;;;;;;15.27;100.00;101511.81;10504575;28;19950;-68
2023/08/05 03:26:47;;;;;;;;;;;;;;;15.35;100.00;101506.88;10505475;28;19931;-68
2023/08/05 03:31:50;;;;;;;;;;;;;;;15.39;100.00;101500.44;10503953;28;20003;-68
2023/08/05 03:36:52;;;;;;;;;;;;;;;15.34;100.00;101501.69;10505099;28;19978;-68
2023/08/05 03:41:55;;;;;;;;;;;;;;;15.36;100.00;101492.72;10504594;28;20380;-68
2023/08/05 03:46:57;;;;;;;;;;;;;;;15.15;100.00;101483.59;10503583;28;19924;-68
2023/08/05 03:51:59;;;;;;;;;;;;;;;15.08;100.00;101471.75;10504418;28;19931;-68
2023/08/05 03:57:07;;;;;;;;;;;;;;;14.96;100.00;101469.00;10502823;28;19924;-68
2023/08/05 04:02:11;;;;;;;;;;;;;;;15.02;100.00;101465.94;10504110;28;19924;-68
2023/08/05 04:07:13;;;;;;;;;;;;;;;14.98;100.00;101471.53;10501236;28;20012;-68
2023/08/05 04:12:16;;;;;;;;;;;;;;;15.00;100.00;101454.66;10503802;28;19924;-67
2023/08/05 04:17:20;;;;;;;;;;;;;;;15.04;100.00;101432.38;10503412;28;19924;-67
2023/08/05 04:22:24;;;;;;;;;;;;;;;14.99;100.00;101431.00;10503416;28;19924;-67
2023/08/05 04:27:26;;;;;;;;;;;;;;;15.02;100.00;101436.09;10503168;28;19924;-67
2023/08/05 04:32:28;;;;;;;;;;;;;;;14.89;100.00;101449.22;10502778;28;19931;-67
2023/08/05 04:37:31;;;;;;;;;;;;;;;14.98;100.00;101447.78;10502788;28;19924;-67
2023/08/05 04:42:33;;;;;;;;;;;;;;;14.88;100.00;101447.53;10502292;28;20404;-67
2023/08/05 04:47:35;;;;;;;;;;;;;;;14.77;100.00;101434.22;10502440;28;19925;-67
2023/08/05 04:52:39;;;;;;;;;;;;;;;14.91;100.00;101422.75;10501964;28;19951;-67
2023/08/05 04:57:42;;;;;;;;;;;;;;;14.79;100.00;101419.13;10501575;28;19924;-67
2023/08/05 05:02:45;;;;;;;;;;;;;;;14.93;100.00;101407.66;10501469;28;20410;-67
2023/08/05 05:07:47;;;;;;;;;;;;;;;15.05;100.00;101409.53;10483711;28;19925;-67
2023/08/05 05:12:49;;;;;;;;;;;;;;;15.10;100.00;101417.13;10501090;28;19928;-67
2023/08/05 05:17:51;;;;;;;;;;;;;;;15.29;100.00;101404.38;10499426;28;19959;-67
2023/08/05 05:22:54;;;;;;;;;;;;;;;15.35;100.00;101396.06;10500863;28;19930;-67
2023/08/05 05:27:56;;;;;;;;;;;;;;;15.62;100.00;101403.03;10500634;28;19924;-68
2023/08/05 05:32:58;;;;;;;;;;;;;;;15.76;100.00;101384.47;10500282;28;20319;-68
2023/08/05 05:38:00;;;;;;;;;;;;;;;15.75;100.00;101390.72;10499116;28;19963;-68
2023/08/05 05:43:03;;;;;;;;;;;;;;;15.96;100.00;101382.22;10499779;28;19928;-69
2023/08/05 05:48:05;;;;;;;;;;;;;;;16.05;100.00;101388.63;10499877;28;19924;-69
2023/08/05 05:53:13;;;;;;;;;;;;;;;16.11;100.00;101390.84;10499668;28;20329;-69
2023/08/05 05:58:15;;;;;;;;;;;;;;;16.06;100.00;101385.06;10499481;28;19924;-69
2023/08/05 06:03:18;;;;;;;;;;;;;;;15.99;100.00;101389.94;10499168;28;19924;-68
2023/08/05 06:08:20;;;;;;;;;;;;;;;16.12;100.00;101388.09;10497971;28;19963;-68
2023/08/05 06:13:22;;;;;;;;;;;;;;;16.02;100.00;101375.66;10498935;28;19925;-68
2023/08/05 06:18:25;;;;;;;;;;;;;;;16.04;100.00;101389.56;10498945;28;19930;-68
2023/08/05 06:23:27;;;;;;;;;;;;;;;16.38;100.00;101384.53;10498571;28;20372;-68
2023/08/05 06:28:29;;;;;;;;;;;;;;;16.42;100.00;101375.41;10496503;28;20295;-68
2023/08/05 06:33:31;;;;;;;;;;;;;;;16.21;100.00;101376.03;10498796;28;19974;-68
2023/08/05 06:38:34;;;;;;;;;;;;;;;16.33;100.00;101366.38;10498492;28;19930;-68
2023/08/05 06:43:36;;;;;;;;;;;;;;;16.36;100.00;101368.78;10497029;28;20364;-68
2023/08/05 06:48:38;;;;;;;;;;;;;;;16.60;100.00;101350.28;10498326;28;19925;-68
2023/08/05 06:53:44;;;;;;;;;;;;;;;16.36;100.00;101347.66;10498017;28;19931;-68
2023/08/05 06:58:46;;;;;;;;;;;;;;;16.57;100.00;101341.75;10497906;28;20011;-68
2023/08/05 07:03:49;;;;;;;;;;;;;;;16.49;100.00;101358.16;10496772;28;19928;-68
2023/08/05 07:08:51;;;;;;;;;;;;;;;16.47;100.00;101345.03;10496476;28;19925;-68
2023/08/05 07:13:53;;;;;;;;;;;;;;;16.76;100.00;101339.41;10480415;22;20027;-68
2023/08/05 07:18:56;;;;;;;;;;;;;;;16.97;100.00;101328.22;10456140;28;19925;-68
2023/08/05 07:23:58;;;;;;;;;;;;;;;16.98;100.00;101335.16;10455824;28;19925;-68
2023/08/05 07:29:00;;;;;;;;;;;;;;;16.96;100.00;101335.28;10455960;28;19962;-68
2023/08/05 07:34:04;;;;;;;;;;;;;;;16.95;100.00;101333.59;10438083;28;20268;-68
2023/08/05 07:39:08;;;;;;;;;;;;;;;17.22;100.00;101337.75;10458223;28;19932;-68
2023/08/05 07:44:12;;;;;;;;;;;;;;;17.33;100.00;101339.56;10463281;28;19960;-69
2023/08/05 07:49:14;;;;;;;;;;;;;;;18.21;100.00;101322.91;10463079;28;19924;-69
2023/08/05 07:54:16;;;;;;;;;;;;;;;17.92;100.00;101310.22;10462986;28;19925;-69
2023/08/05 07:59:20;;;;;;;;;;;;;;;18.04;100.00;101291.63;10445285;28;19931;-69
2023/08/05 08:04:22;;;;;;;;;;;;;;;17.94;100.00;101292.38;10462505;28;20368;-69
2023/08/05 08:09:24;;;;;;;;;;;;;;;17.79;98.39;101277.69;10444916;28;19925;-69
2023/08/05 08:14:26;;;;;;;;;;;;;;;18.30;97.27;101266.47;10462106;28;19925;-69
2023/08/05 08:19:29;;;;;;;;;;;;;;;18.60;96.86;101259.59;10461947;28;19931;-69
2023/08/05 08:24:31;;;;;;;;;;;;;;;19.27;94.45;101254.84;10461648;28;19931;-69
2023/08/05 08:29:33;;;;;;;;;;;;;;;18.49;91.88;101255.22;10461462;28;19924;-68
2023/08/05 08:34:35;;;;;;;;;;;;;;;19.09;89.81;101247.47;10461279;28;19931;-70
2023/08/05 08:39:38;;;;;;;;;;;;;;;19.25;93.33;101241.69;10461238;28;19931;-68
2023/08/05 08:44:40;;;;;;;;;;;;;;;19.58;89.67;101238.84;10461167;28;19929;-69
2023/08/05 08:49:44;;;;;;;;;;;;;;;20.14;84.31;101221.47;10460005;28;20003;-69
2023/08/05 08:54:47;;;;;;;;;;;;;;;20.00;82.45;101217.41;10460564;28;19932;-69
2023/08/05 08:59:50;;;;;;;;;;;;;;;19.92;81.77;101212.81;10426568;28;20016;-69
2023/08/05 09:04:53;;;;;;;;;;;;;;;19.36;82.41;101216.84;10442446;28;20286;-69
2023/08/05 09:09:57;;;;;;;;;;;;;;;20.72;80.05;101202.78;10460087;28;19971;-68
2023/08/05 09:14:59;;;;;;;;;;;;;;;21.43;76.34;101196.03;10459829;28;20012;-69
2023/08/05 09:20:28;;;;;;;;;;;;;;;21.23;74.72;101186.47;10442107;28;19924;-69
2023/08/05 09:25:31;;;;;;;;;;;;;;;21.10;71.34;101170.88;10454803;28;19935;-69
2023/08/05 09:30:33;;;;;;;;;;;;;;;22.67;69.12;101163.28;10441479;28;20442;-78
2023/08/05 09:35:35;;;;;;;;;;;;;;;23.42;68.69;101146.59;10441521;28;19932;-73
2023/08/05 09:40:41;;;;;;;;;;;;;;;22.03;69.08;101144.84;10458713;28;19925;-71
2023/08/05 09:45:45;;;;;;;;;;;;;;;21.89;71.70;101135.56;10458576;28;20363;-71
2023/08/05 09:50:48;;;;;;;;;;;;;;;22.06;71.30;101130.38;10440899;28;19924;-71
2023/08/05 09:55:50;;;;;;;;;;;;;;;21.98;68.46;101104.47;10458229;28;19929;-71
2023/08/05 10:00:52;;;;;;;;;;;;;;;23.54;66.24;101104.38;10440234;28;20393;-71
2023/08/05 10:05:56;;;;;;;;;;;;;;;22.47;68.45;101098.66;10457789;28;19935;-72
2023/08/05 10:10:59;;;;;;;;;;;;;;;21.85;72.03;101085.38;10440454;28;19925;-72
2023/08/05 10:16:01;;;;;;;;;;;;;;;23.15;69.97;101078.25;10439755;28;19925;-72
2023/08/05 10:21:05;;;;;;;;;;;;;;;22.47;71.72;101068.47;10423416;28;19968;-72
2023/08/05 10:26:09;;;;;;;;;;;;;;;21.42;68.54;101058.53;10457243;28;20396;-71
2023/08/05 10:31:25;;;;;;;;;;;;;;;22.35;71.32;101057.25;10422879;28;19924;-71
2023/08/05 10:36:39;;;;;;;;;;;;;;;22.49;68.58;101042.47;10457121;28;19925;-71
2023/08/05 10:41:41;;;;;;;;;;;;;;;22.49;66.69;101040.63;10439139;28;19925;-71
2023/08/05 10:46:44;;;;;;;;;;;;;;;22.05;71.86;101043.38;10456664;28;19925;-71
2023/08/05 10:51:46;;;;;;;;;;;;;;;21.93;71.67;101034.81;10439142;28;19925;-71
2023/08/05 10:56:48;;;;;;;;;;;;;;;21.74;70.04;101027.00;10456773;28;20004;-71
2023/08/05 11:01:55;;;;;;;;;;;;;;;21.39;72.38;101021.53;10456298;28;20303;-71
2023/08/05 11:07:00;;;;;;;;;;;;;;;22.89;69.57;101004.41;10456530;28;19925;-71
2023/08/05 11:12:02;;;;;;;;;;;;;;;22.51;68.75;101001.31;10438424;28;19986;-71
2023/08/05 11:17:07;;;;;;;;;;;;;;;22.94;68.13;100982.56;10463766;28;19961;-72
2023/08/05 11:22:09;;;;;;;;;;;;;;;24.06;65.38;100972.16;10464343;28;20023;-72
2023/08/05 11:27:12;;;;;;;;;;;;;;;22.90;66.25;100963.38;10464066;28;19925;-72
2023/08/05 11:32:14;;;;;;;;;;;;;;;21.68;69.28;100956.53;10464088;28;19934;-72
2023/08/05 11:37:22;;;;;;;;;;;;;;;21.53;69.96;100937.59;10463597;28;19925;-72
2023/08/05 11:42:24;;;;;;;;;;;;;;;20.59;72.56;100933.56;10445935;28;20383;-72
2023/08/05 11:47:26;;;;;;;;;;;;;;;20.94;77.14;100948.75;10445497;28;19982;-68
2023/08/05 11:52:29;;;;;;;;;;;;;;;20.07;85.16;101000.59;10462980;28;19964;-67
2023/08/05 11:57:32;;;;;;;;;;;;;;;18.86;100.00;101013.38;10462834;28;20368;-68
2023/08/05 12:02:34;;;;;;;;;;;;;;;18.52;100.00;100995.09;10462587;28;19928;-68
2023/08/05 12:07:41;;;;;;;;;;;;;;;18.26;100.00;100992.09;10445027;28;19960;-68
2023/08/05 12:12:44;;;;;;;;;;;;;;;18.51;100.00;100982.84;10462229;28;19924;-68
2023/08/05 12:17:47;;;;;;;;;;;;;;;18.42;100.00;100973.03;10462277;28;19939;-68
2023/08/05 12:22:50;;;;;;;;;;;;;;;18.62;100.00;100973.09;10427811;28;20012;-68
2023/08/05 12:27:54;;;;;;;;;;;;;;;18.83;100.00;100967.69;10442884;28;19965;-68
2023/08/05 12:32:58;;;;;;;;;;;;;;;18.85;100.00;100965.78;10443813;28;19964;-68
2023/08/05 12:38:00;;;;;;;;;;;;;;;18.83;100.00;100954.44;10461402;28;19933;-68
2023/08/05 12:43:02;;;;;;;;;;;;;;;18.58;100.00;100951.31;10443546;28;20009;-68
2023/08/05 12:48:05;;;;;;;;;;;;;;;18.74;100.00;100941.03;10443065;28;20295;-68
2023/08/05 12:53:07;;;;;;;;;;;;;;;18.56;100.00;100922.28;10460542;28;20003;-68
2023/08/05 12:58:09;;;;;;;;;;;;;;;18.54;100.00;100918.94;10460522;28;20386;-68
2023/08/05 13:03:11;;;;;;;;;;;;;;;18.65;100.00;100912.66;10460133;28;20265;-68
2023/08/05 13:08:14;;;;;;;;;;;;;;;18.52;100.00;100902.31;10460297;28;20016;-68
2023/08/05 13:13:16;;;;;;;;;;;;;;;18.67;100.00;100913.34;10459576;28;20372;-68
2023/08/05 13:18:18;;;;;;;;;;;;;;;18.67;100.00;100909.88;10459894;28;19931;-68
2023/08/05 13:23:20;;;;;;;;;;;;;;;18.73;100.00;100912.81;10459483;28;19928;-68
2023/08/05 13:28:23;;;;;;;;;;;;;;;18.64;100.00;100900.38;10459240;28;19925;-68
2023/08/05 13:33:25;;;;;;;;;;;;;;;18.49;100.00;100901.75;10441251;28;20291;-68
2023/08/05 13:38:27;;;;;;;;;;;;;;;18.14;100.00;100909.22;10458441;28;19951;-68
2023/08/05 13:43:29;;;;;;;;;;;;;;;17.74;100.00;100909.16;10458663;28;19931;-67
2023/08/05 13:48:35;;;;;;;;;;;;;;;17.37;100.00;100907.00;10458519;28;19925;-68
2023/08/05 13:53:37;;;;;;;;;;;;;;;16.99;100.00;100896.00;10458600;28;20008;-68
2023/08/05 13:58:40;;;;;;;;;;;;;;;17.24;100.00;100893.94;10458263;28;20287;-67
2023/08/05 14:03:42;;;;;;;;;;;;;;;17.09;100.00;100874.91;10440088;28;19925;-67
2023/08/05 14:08:44;;;;;;;;;;;;;;;17.57;100.00;100857.66;10458086;28;19948;-68
2023/08/05 14:13:48;;;;;;;;;;;;;;;17.60;100.00;100863.53;10457340;28;20439;-67
2023/08/05 14:18:50;;;;;;;;;;;;;;;17.43;100.00;100874.69;10457717;28;19928;-68
2023/08/05 14:23:53;;;;;;;;;;;;;;;17.59;100.00;100868.94;10457261;28;19932;-68
2023/08/05 14:28:55;;;;;;;;;;;;;;;17.60;100.00;100854.72;10457084;28;20380;-68
2023/08/05 14:33:57;;;;;;;;;;;;;;;17.70;100.00;100860.94;10457175;28;19932;-67
2023/08/05 14:38:59;;;;;;;;;;;;;;;17.58;100.00;100861.97;10456815;28;20279;-68
2023/08/05 14:44:03;;;;;;;;;;;;;;;17.53;100.00;100862.34;10456610;28;19948;-68
2023/08/05 14:49:06;;;;;;;;;;;;;;;17.60;100.00;100858.22;10455884;28;19925;-68
2023/08/05 14:54:09;;;;;;;;;;;;;;;17.62;100.00;100845.69;10456968;28;19931;-68
2023/08/05 14:59:11;;;;;;;;;;;;;;;17.44;100.00;100832.22;10456734;28;19928;-68
2023/08/05 15:04:13;;;;;;;;;;;;;;;17.16;100.00;100835.56;10456367;28;20006;-68
2023/08/05 15:09:15;;;;;;;;;;;;;;;17.52;100.00;100823.63;10456224;28;20370;-67
2023/08/05 15:14:18;;;;;;;;;;;;;;;17.35;100.00;100827.72;10455884;28;19925;-68
2023/08/05 15:19:20;;;;;;;;;;;;;;;17.31;100.00;100830.75;10454863;28;20287;-68
2023/08/05 15:24:22;;;;;;;;;;;;;;;17.29;100.00;100817.66;10456019;28;19925;-68
2023/08/05 15:29:25;;;;;;;;;;;;;;;17.10;100.00;100815.75;10455902;28;19924;-68
2023/08/05 15:34:30;;;;;;;;;;;;;;;16.82;100.00;100802.16;10456008;28;19925;-68
2023/08/05 15:39:33;;;;;;;;;;;;;;;16.81;100.00;100792.56;10438899;28;19931;-67
2023/08/05 15:44:35;;;;;;;;;;;;;;;16.50;100.00;100775.78;10455814;28;20020;-67
2023/08/05 15:49:37;;;;;;;;;;;;;;;16.28;100.00;100766.16;10455396;28;20445;-67
2023/08/05 15:54:40;;;;;;;;;;;;;;;16.65;100.00;100763.94;10455478;28;19925;-68
2023/08/05 15:59:44;;;;;;;;;;;;;;;16.96;100.00;100758.72;10457183;28;19960;-67
2023/08/05 16:04:46;;;;;;;;;;;;;;;17.02;100.00;100754.72;10428405;28;20027;-67
2023/08/05 16:09:48;;;;;;;;;;;;;;;17.03;100.00;100741.38;10462393;28;20376;-67
2023/08/05 16:14:51;;;;;;;;;;;;;;;17.06;100.00;100737.63;10461931;28;19929;-67
2023/08/05 16:19:54;;;;;;;;;;;;;;;17.07;100.00;100728.72;10444522;28;20283;-67
2023/08/05 16:24:56;;;;;;;;;;;;;;;17.02;100.00;100723.81;10444034;28;19931;-67
2023/08/05 16:29:58;;;;;;;;;;;;;;;16.86;100.00;100712.88;10461668;28;20020;-67
2023/08/05 16:35:01;;;;;;;;;;;;;;;16.67;100.00;100706.47;10461443;28;19928;-67
2023/08/05 16:40:03;;;;;;;;;;;;;;;16.84;100.00;100704.22;10461228;28;19924;-67
2023/08/05 16:45:07;;;;;;;;;;;;;;;16.64;100.00;100688.25;10460958;28;19939;-67
2023/08/05 16:50:09;;;;;;;;;;;;;;;16.62;100.00;100684.88;10460861;28;19925;-67
2023/08/05 16:55:12;;;;;;;;;;;;;;;16.34;100.00;100683.75;10443253;28;19925;-67
2023/08/05 17:00:16;;;;;;;;;;;;;;;16.69;100.00;100687.84;10459905;28;20209;-68
2023/08/05 17:05:18;;;;;;;;;;;;;;;17.00;100.00;100683.44;10460153;28;19924;-68
2023/08/05 17:10:20;;;;;;;;;;;;;;;16.56;100.00;100676.63;10442106;28;20327;-68
2023/08/05 17:15:23;;;;;;;;;;;;;;;16.71;100.00;100672.72;10458121;28;19925;-67
2023/08/05 17:20:25;;;;;;;;;;;;;;;16.44;100.00;100671.44;10457641;28;19975;-67
2023/08/05 17:25:27;;;;;;;;;;;;;;;16.45;100.00;100667.81;10457386;28;19925;-67
2023/08/05 17:30:29;;;;;;;;;;;;;;;16.53;100.00;100661.88;10457345;28;20296;-67
2023/08/05 17:35:32;;;;;;;;;;;;;;;16.50;100.00;100657.69;10423183;28;20335;-67
2023/08/05 17:40:34;;;;;;;;;;;;;;;16.46;100.00;100658.09;10439413;28;19925;-67
2023/08/05 17:45:37;;;;;;;;;;;;;;;16.41;100.00;100657.63;10456849;28;20283;-67
2023/08/05 17:50:39;;;;;;;;;;;;;;;16.49;100.00;100655.16;10456696;28;19924;-67
2023/08/05 17:55:41;;;;;;;;;;;;;;;16.18;100.00;100649.84;10456477;28;20398;-67
2023/08/05 18:00:43;;;;;;;;;;;;;;;16.11;100.00;100648.69;10438708;28;20284;-67
2023/08/05 18:05:46;;;;;;;;;;;;;;;16.26;100.00;100636.81;10456097;28;19970;-67
2023/08/05 18:10:48;;;;;;;;;;;;;;;16.18;100.00;100628.72;10456254;28;19925;-67
2023/08/05 18:15:50;;;;;;;;;;;;;;;16.10;100.00;100636.44;10375697;28;1811461;-67
2023/08/05 18:20:53;;;;;;;;;;;;;;;15.88;100.00;100632.91;10457618;28;20011;-67
2023/08/05 18:25:55;;;;;;;;;;;;;;;15.79;100.00;100629.25;10456114;28;20275;-67
2023/08/05 18:30:57;;;;;;;;;;;;;;;15.97;100.00;100629.53;10457025;28;20378;-68
2023/08/05 18:36:02;;;;;;;;;;;;;;;16.04;100.00;100621.94;10456997;28;19925;-68
2023/08/05 18:41:05;;;;;;;;;;;;;;;16.08;100.00;100623.34;10456904;28;19978;-67
2023/08/05 18:46:08;;;;;;;;;;;;;;;15.87;100.00;100612.78;10439215;28;19925;-66
2023/08/05 18:51:10;;;;;;;;;;;;;;;15.72;100.00;100619.31;10438967;28;20339;-67
2023/08/05 18:56:13;;;;;;;;;;;;;;;15.77;100.00;100612.69;10456836;28;19924;-67
2023/08/05 19:01:16;;;;;;;;;;;;;;;15.58;100.00;100613.34;10456587;28;19931;-67
2023/08/05 19:06:18;;;;;;;;;;;;;;;15.76;100.00;100613.66;10438633;28;20339;-67
2023/08/05 19:11:20;;;;;;;;;;;;;;;16.09;100.00;100605.72;10456484;28;19931;-67
2023/08/05 19:16:22;;;;;;;;;;;;;;;16.03;100.00;100601.78;10455874;28;19925;-67
2023/08/05 19:21:25;;;;;;;;;;;;;;;16.15;100.00;100595.47;10438469;28;19925;-67
2023/08/05 19:26:27;;;;;;;;;;;;;;;16.14;100.00;100587.69;10460018;22;20356;-67
2023/08/05 19:31:29;;;;;;;;;;;;;;;15.98;100.00;100588.13;10456212;28;19925;-70
2023/08/05 19:36:31;;;;;;;;;;;;;;;16.03;100.00;100582.47;10460664;28;20356;-70
2023/08/05 19:41:33;;;;;;;;;;;;;;;15.98;100.00;100575.75;10463475;28;19975;-70
2023/08/05 19:46:36;;;;;;;;;;;;;;;16.07;100.00;100565.38;10463244;28;19929;-70
2023/08/05 19:51:38;;;;;;;;;;;;;;;15.87;100.00;100554.72;10445546;28;19933;-70
2023/08/05 19:56:40;;;;;;;;;;;;;;;15.61;100.00;100557.66;10463209;28;19925;-69
2023/08/05 20:01:42;;;;;;;;;;;;;;;15.86;100.00;100558.31;10462785;28;20286;-70
2023/08/05 20:06:45;;;;;;;;;;;;;;;15.92;100.00;100546.38;10462520;28;19939;-70
2023/08/05 20:11:47;;;;;;;;;;;;;;;15.79;100.00;100538.66;10462304;28;19932;-69
2023/08/05 20:16:51;;;;;;;;;;;;;;;15.90;100.00;100533.34;10462215;28;20058;-70
2023/08/05 20:21:56;;;;;;;;;;;;;;;15.75;100.00;100534.56;10462037;28;20445;-70
2023/08/05 20:26:58;;;;;;;;;;;;;;;15.72;100.00;100526.94;10461604;28;19925;-70
2023/08/05 20:32:00;;;;;;;;;;;;;;;15.50;100.00;100533.13;10461891;28;19932;-70
2023/08/05 20:37:02;;;;;;;;;;;;;;;15.38;100.00;100534.97;10462003;28;19925;-70
2023/08/05 20:42:05;;;;;;;;;;;;;;;15.30;100.00;100526.84;10461193;28;20004;-70
2023/08/05 20:47:07;;;;;;;;;;;;;;;15.49;100.00;100518.28;10459798;28;20363;-70
2023/08/05 20:52:09;;;;;;;;;;;;;;;15.48;100.00;100516.59;10460852;28;20020;-70
2023/08/05 20:57:12;;;;;;;;;;;;;;;15.50;100.00;100517.28;10460549;28;19939;-70
2023/08/05 21:02:14;;;;;;;;;;;;;;;15.67;100.00;100515.88;10460203;28;19932;-70
2023/08/05 21:07:18;;;;;;;;;;;;;;;15.69;100.00;100506.88;10442561;28;19925;-70
2023/08/05 21:12:20;;;;;;;;;;;;;;;15.68;100.00;100502.56;10460079;28;20264;-70
2023/08/05 21:17:22;;;;;;;;;;;;;;;15.45;100.00;100506.28;10442181;28;19931;-70
2023/08/05 21:22:25;;;;;;;;;;;;;;;15.31;100.00;100502.16;10459843;28;19968;-70
2023/08/05 21:27:28;;;;;;;;;;;;;;;15.29;100.00;100506.72;10459177;28;20027;-69
2023/08/05 21:32:30;;;;;;;;;;;;;;;15.35;100.00;100504.41;10459370;28;19924;-70
2023/08/05 21:37:32;;;;;;;;;;;;;;;15.54;100.00;100505.53;10459187;28;20399;-70
2023/08/05 21:42:35;;;;;;;;;;;;;;;15.31;100.00;100483.69;10441288;28;19979;-70
2023/08/05 21:47:37;;;;;;;;;;;;;;;15.35;100.00;100485.13;10441077;28;19929;-70
2023/08/05 21:52:39;;;;;;;;;;;;;;;15.32;100.00;100462.47;10458431;28;20379;-70
2023/08/05 21:57:41;;;;;;;;;;;;;;;15.41;100.00;100461.69;10458306;28;20015;-70
2023/08/05 22:02:44;;;;;;;;;;;;;;;15.42;100.00;100455.44;10457981;28;20376;-70
2023/08/05 22:07:46;;;;;;;;;;;;;;;15.49;100.00;100444.41;10457671;28;19930;-70
2023/08/05 22:12:49;;;;;;;;;;;;;;;15.18;100.00;100447.78;10440254;28;19941;-70
2023/08/05 22:17:51;;;;;;;;;;;;;;;15.16;100.00;100440.94;10457485;28;19931;-70
2023/08/05 22:22:54;;;;;;;;;;;;;;;15.25;100.00;100432.28;10457318;28;20364;-70
2023/08/05 22:27:56;;;;;;;;;;;;;;;15.14;100.00;100427.06;10457098;28;19939;-71
2023/08/05 22:32:58;;;;;;;;;;;;;;;15.33;100.00;100427.22;10457242;28;19925;-70
2023/08/05 22:38:00;;;;;;;;;;;;;;;15.47;100.00;100417.31;10457162;28;19925;-70
2023/08/05 22:43:03;;;;;;;;;;;;;;;15.45;100.00;100409.53;10456656;28;19964;-70
2023/08/05 22:48:05;;;;;;;;;;;;;;;15.31;100.00;100401.91;10457043;28;19925;-70
2023/08/05 22:53:07;;;;;;;;;;;;;;;15.36;100.00;100397.09;10456514;28;20387;-70
2023/08/05 22:58:09;;;;;;;;;;;;;;;15.27;100.00;100405.78;10439005;28;19925;-70
2023/08/05 23:03:12;;;;;;;;;;;;;;;15.27;100.00;100397.88;10438922;28;19978;-70
2023/08/05 23:08:15;;;;;;;;;;;;;;;15.30;100.00;100390.53;10456404;28;19931;-70
2023/08/05 23:13:17;;;;;;;;;;;;;;;15.27;100.00;100382.06;10464685;28;19928;-70
2023/08/05 23:18:19;;;;;;;;;;;;;;;15.14;100.00;100380.44;10464605;28;19937;-64
2023/08/05 23:23:21;;;;;;;;;;;;;;;15.16;100.00;100373.25;10464548;28;19924;-64
2023/08/05 23:28:24;;;;;;;;;;;;;;;15.14;100.00;100366.41;10463992;28;20275;-64
2023/08/05 23:33:26;;;;;;;;;;;;;;;15.26;100.00;100372.47;10464183;28;19931;-64
2023/08/05 23:38:28;;;;;;;;;;;;;;;15.30;100.00;100364.16;10463802;28;19925;-64
2023/08/05 23:43:30;;;;;;;;;;;;;;;15.21;100.00;100364.94;10463411;28;19931;-64
2023/08/05 23:48:33;;;;;;;;;;;;;;;15.17;100.00;100371.44;10463491;28;19932;-64
2023/08/05 23:53:35;;;;;;;;;;;;;;;15.12;100.00;100366.53;10463316;28;20011;-64
2023/08/05 23:58:37;;;;;;;;;;;;;;;15.20;100.00;100374.66;10445208;28;20402;-64
